Time;durP1;ratioP1;P1;durP2;ratioP2;P2;SDS_P1;SDS_P2;PMS_P1;PMS_P2;Temp;Humidity;BMP_temperature;BMP_pressure;BME280_temperature;BME280_humidity;BME280_pressure;Samples;Min_cycle;Max_cycle;Signal;HPM_P1;HPM_P2
2022/02/07 00:00:16;;;;;;;3.00;0.60;;;;;;;0.51;100.00;98852.63;5033234;28;20194;-77
2022/02/07 00:12:45;;;;;;;1.97;0.60;;;;;;;1.02;100.00;98879.81;4990088;28;20190;-79
2022/02/07 00:18:36;;;;;;;1.93;0.40;;;;;;;1.25;98.79;98934.50;4989238;28;20206;-78
2022/02/07 00:21:02;;;;;;;2.00;0.67;;;;;;;1.35;99.02;98971.28;5024099;28;20237;-78
2022/02/07 00:23:29;;;;;;;2.57;0.60;;;;;;;1.33;98.16;98991.84;5033444;28;20283;-77
2022/02/07 00:25:55;;;;;;;1.90;0.90;;;;;;;1.26;97.41;99009.88;5033282;28;20207;-78
2022/02/07 00:28:22;;;;;;;1.37;0.50;;;;;;;1.19;98.37;99009.06;5032936;28;20633;-80
2022/02/07 00:30:49;;;;;;;1.63;0.40;;;;;;;1.02;100.00;98975.72;5032840;28;20202;-78
2022/02/07 00:33:15;;;;;;;1.93;0.43;;;;;;;0.95;100.00;98956.03;5032228;28;20241;-78
2022/02/07 00:35:43;;;;;;;1.83;0.40;;;;;;;0.92;100.00;98940.66;5033037;28;20575;-78
2022/02/07 00:38:15;;;;;;;3.33;1.00;;;;;;;0.85;100.00;98934.66;5033162;28;20276;-78
2022/02/07 00:41:00;;;;;;;2.20;0.50;;;;;;;0.79;100.00;98940.69;5032553;28;20190;-79
2022/02/07 00:43:34;;;;;;;2.57;0.70;;;;;;;0.81;100.00;98948.38;5033026;28;20226;-78
2022/02/07 00:46:06;;;;;;;2.23;1.07;;;;;;;0.89;100.00;98964.66;5033013;28;20194;-78
2022/02/07 00:48:33;;;;;;;1.90;0.40;;;;;;;0.96;99.77;98989.44;5032387;28;20203;-78
2022/02/07 00:51:01;;;;;;;5.33;0.97;;;;;;;0.99;99.34;99012.56;5032194;28;20202;-78
2022/02/07 00:53:28;;;;;;;2.40;0.77;;;;;;;1.08;97.99;99064.78;5032780;28;20283;-78
2022/02/07 00:55:54;;;;;;;1.83;0.60;;;;;;;1.13;96.81;99091.28;5032521;28;20713;-80
2022/02/07 00:58:21;;;;;;;1.90;0.50;;;;;;;1.18;95.10;99141.81;5032537;28;20213;-77
2022/02/07 01:00:48;;;;;;;1.17;0.60;;;;;;;1.28;93.64;99190.66;5032323;28;20210;-78
2022/02/07 01:03:14;;;;;;;2.40;0.57;;;;;;;1.31;92.85;99234.34;5031903;28;20234;-78
2022/02/07 01:05:41;;;;;;;3.83;0.70;;;;;;;1.37;91.71;99278.91;5032562;28;20202;-78
2022/02/07 01:08:09;;;;;;;1.87;0.67;;;;;;;1.49;90.39;99323.47;5032966;28;20206;-78
2022/02/07 01:10:46;;;;;;;1.30;0.50;;;;;;;1.42;90.68;99326.91;5032128;28;20257;-78
2022/02/07 01:13:20;;;;;;;3.33;0.63;;;;;;;1.37;91.45;99327.75;5032277;28;20265;-77
2022/02/07 01:15:55;;;;;;;1.97;0.50;;;;;;;1.32;90.85;99314.03;5032324;28;20445;-79
2022/02/07 01:21:33;;;;;;;0.67;0.40;;;;;;;1.30;91.69;99322.59;5029040;28;20281;-79
2022/02/07 01:49:21;;;;;;;3.40;0.67;;;;;;;1.39;90.26;99464.03;5031530;28;20206;-78
2022/02/07 01:52:05;;;;;;;4.57;0.93;;;;;;;1.39;90.45;99467.44;5031988;28;20206;-78
2022/02/07 01:54:38;;;;;;;1.30;0.50;;;;;;;1.44;90.55;99480.31;5032007;28;20205;-77
2022/02/07 01:57:09;;;;;;;7.33;0.90;;;;;;;1.45;90.49;99478.59;5031733;28;20233;-76
2022/02/07 01:59:36;;;;;;;3.63;0.70;;;;;;;1.48;90.18;99479.47;5031381;28;20265;-79
2022/02/07 02:02:03;;;;;;;9.77;0.80;;;;;;;1.46;91.00;99480.31;5031754;28;20621;-77
2022/02/07 02:04:29;;;;;;;2.63;0.80;;;;;;;1.43;91.65;99488.88;5031707;28;20232;-77
2022/02/07 02:06:56;;;;;;;4.50;1.07;;;;;;;1.44;91.61;99492.31;5032396;28;20198;-79
2022/02/07 02:09:23;;;;;;;8.73;1.13;;;;;;;1.46;90.77;99503.47;5031599;28;20206;-78
2022/02/07 02:11:49;;;;;;;4.37;0.60;;;;;;;1.44;90.30;99518.88;5031904;28;20689;-77
2022/02/07 02:14:33;;;;;;;3.50;0.73;;;;;;;1.42;91.22;99527.44;5031981;28;20236;-77
2022/02/07 02:17:19;;;;;;;3.53;1.20;;;;;;;1.35;90.17;99535.16;5031670;28;20206;-79
2022/02/07 02:22:49;;;;;;;3.43;0.70;;;;;;;1.39;90.33;99578.00;5031833;28;20232;-79
2022/02/07 02:34:02;;;;;;;3.80;1.10;;;;;;;1.42;91.10;99563.44;5030931;28;20736;-79
2022/02/07 02:36:36;;;;;;;3.97;0.90;;;;;;;1.46;91.10;99560.88;5031594;28;20226;-79
2022/02/07 02:47:25;;;;;;;2.87;0.50;;;;;;;1.51;92.00;99568.63;5034888;28;20244;-77
2022/02/07 02:50:02;;;;;;;4.27;0.80;;;;;;;1.49;91.82;99578.91;5034453;28;20304;-79
2022/02/07 02:52:29;;;;;;;2.47;1.07;;;;;;;1.51;91.96;99576.34;5034957;28;20232;-77
2022/02/07 02:54:57;;;;;;;4.03;0.90;;;;;;;1.58;91.92;99594.34;5034874;28;20206;-78
2022/02/07 02:57:23;;;;;;;5.03;0.80;;;;;;;1.56;92.70;99565.19;5033955;28;20222;-79
2022/02/07 02:59:49;;;;;;;4.40;1.40;;;;;;;1.53;93.54;99564.34;5034459;28;20210;-78
2022/02/07 03:02:16;;;;;;;2.30;0.67;;;;;;;1.62;93.13;99564.38;5034615;28;20303;-80
2022/02/07 03:04:42;;;;;;;3.70;0.70;;;;;;;1.82;92.48;99597.00;5034206;28;20665;-77
2022/02/07 03:07:08;;;;;;;4.43;0.87;;;;;;;1.86;91.99;99617.59;5034473;28;20734;-79
2022/02/07 03:09:35;;;;;;;5.77;1.43;;;;;;;1.85;92.11;99639.06;5034134;28;20625;-79
2022/02/07 03:12:04;;;;;;;5.57;1.00;;;;;;;1.87;91.34;99639.06;5034150;28;20228;-77
2022/02/07 03:14:42;;;;;;;6.70;0.80;;;;;;;1.92;91.74;99647.66;5034268;28;20665;-78
2022/02/07 03:17:08;;;;;;;2.40;0.50;;;;;;;1.93;92.41;99647.66;5034414;28;20742;-77
2022/02/07 03:19:34;;;;;;;2.53;0.80;;;;;;;1.85;91.95;99671.66;5033980;28;20297;-79
2022/02/07 03:22:00;;;;;;;5.80;0.70;;;;;;;1.89;91.69;99656.22;5034752;28;20252;-77
2022/02/07 03:24:27;;;;;;;2.30;1.00;;;;;;;1.83;91.95;99655.34;5034609;28;20252;-77
2022/02/07 03:26:53;;;;;;;1.53;0.60;;;;;;;1.85;91.97;99676.81;5034301;28;20203;-77
2022/02/07 03:29:21;;;;;;;2.70;0.70;;;;;;;1.87;91.68;99668.22;5033991;28;20241;-77
2022/02/07 03:31:47;;;;;;;4.73;0.90;;;;;;;1.98;91.04;99706.84;5034647;28;20206;-79
2022/02/07 03:34:14;;;;;;;1.57;0.63;;;;;;;1.99;91.47;99716.31;5033784;28;20237;-79
2022/02/07 03:36:41;;;;;;;2.63;0.60;;;;;;;1.89;91.25;99740.28;5034163;28;20260;-79
2022/02/07 03:39:07;;;;;;;1.47;0.47;;;;;;;1.76;92.22;99722.22;5033988;28;20580;-78
2022/02/07 03:41:33;;;;;;;2.63;0.70;;;;;;;1.79;92.47;99717.06;5033433;28;20264;-78
2022/02/07 03:44:00;;;;;;;3.27;0.50;;;;;;;1.79;92.31;99722.22;5033975;28;20222;-78
2022/02/07 03:46:28;;;;;;;2.27;0.50;;;;;;;1.75;91.83;99740.22;5034078;28;20249;-77
2022/02/07 03:48:54;;;;;;;1.83;0.30;;;;;;;1.68;91.74;99739.31;5033421;28;20203;-77
2022/02/07 03:51:20;;;;;;;0.50;0.27;;;;;;;1.62;92.25;99731.56;5033673;28;20206;-78
2022/02/07 03:53:47;;;;;;;1.30;0.40;;;;;;;1.62;93.31;99715.28;5033068;28;20226;-78
2022/02/07 03:56:13;;;;;;;0.93;0.40;;;;;;;1.60;94.17;99704.97;5033511;28;20260;-77
2022/02/07 03:58:40;;;;;;;1.60;0.50;;;;;;;1.55;95.32;99688.66;5033429;28;20248;-79
2022/02/07 04:01:07;;;;;;;1.83;0.67;;;;;;;1.58;96.11;99660.38;5033308;28;20319;-79
2022/02/07 04:03:36;;;;;;;1.60;0.40;;;;;;;1.51;96.05;99641.50;5033321;28;20300;-79
2022/02/07 04:06:05;;;;;;;1.70;0.30;;;;;;;1.35;96.65;99632.84;5037235;28;20775;-78
2022/02/07 04:08:37;;;;;;;1.97;0.40;;;;;;;1.31;97.87;99615.69;5042088;28;20202;-78
2022/02/07 04:11:11;;;;;;;1.50;0.33;;;;;;;1.27;98.36;99607.94;5042699;28;20197;-76
2022/02/07 04:13:40;;;;;;;3.00;0.40;;;;;;;1.46;97.57;99624.31;5040152;28;20221;-78
2022/02/07 04:16:07;;;;;;;4.53;0.50;;;;;;;1.49;97.09;99639.78;5042352;28;20205;-76
2022/02/07 04:18:48;;;;;;;3.30;0.60;;;;;;;1.57;97.31;99638.09;5043630;28;20202;-77
2022/02/07 04:21:15;;;;;;;4.57;0.90;;;;;;;1.76;96.34;99675.03;5043715;28;20212;-79
2022/02/07 04:23:41;;;;;;;3.40;0.80;;;;;;;1.77;95.81;99697.34;5042712;28;20218;-78
2022/02/07 04:26:07;;;;;;;1.70;0.70;;;;;;;1.75;95.18;99712.78;5042677;28;20194;-78
2022/02/07 04:28:34;;;;;;;7.03;1.17;;;;;;;1.87;94.58;99722.25;5044260;28;20259;-79
2022/02/07 04:31:00;;;;;;;3.47;1.23;;;;;;;1.90;95.06;99747.16;5042256;28;20236;-77
2022/02/07 04:33:26;;;;;;;5.53;1.30;;;;;;;1.94;95.13;99754.91;5041500;28;20233;-77
2022/02/07 04:35:54;;;;;;;9.47;1.17;;;;;;;1.90;94.19;99750.59;5039983;28;20194;-76
2022/02/07 04:38:20;;;;;;;3.60;1.20;;;;;;;1.91;94.22;99770.31;5043196;28;20773;-78
2022/02/07 04:40:47;;;;;;;3.43;1.23;;;;;;;1.98;93.55;99795.25;5041192;28;20198;-78
2022/02/07 04:43:16;;;;;;;2.53;1.10;;;;;;;2.04;92.88;99820.13;5040617;28;20226;-78
2022/02/07 04:45:54;;;;;;;6.57;1.47;;;;;;;2.03;92.11;99839.03;5041198;28;20276;-79
2022/02/07 04:48:42;;;;;;;4.03;1.20;;;;;;;2.08;92.48;99849.34;5041033;28;20322;-78
2022/02/07 04:51:37;;;;;;;3.00;0.97;;;;;;;2.09;91.80;99869.94;5044152;28;20254;-79
2022/02/07 04:54:15;;;;;;;5.83;1.67;;;;;;;2.18;91.31;99890.59;5041793;28;20221;-79
2022/02/07 04:59:37;;;;;;;6.70;1.23;;;;;;;2.34;90.63;99934.50;5043713;28;20288;-79
2022/02/07 05:02:09;;;;;;;7.37;1.23;;;;;;;2.49;89.67;99964.63;5041044;28;20228;-79
2022/02/07 05:04:41;;;;;;;3.60;1.00;;;;;;;2.56;89.23;99993.00;5041408;28;20743;-79
2022/02/07 05:15:20;;;;;;;6.37;1.80;;;;;;;2.62;89.47;100050.56;5007749;28;20333;-80
2022/02/07 05:17:47;;;;;;;5.80;1.50;;;;;;;2.77;88.83;100058.41;5041075;28;20218;-77
2022/02/07 05:20:13;;;;;;;10.60;2.97;;;;;;;2.86;88.82;100076.50;5041482;28;20256;-77
2022/02/07 05:22:41;;;;;;;8.50;1.40;;;;;;;2.89;88.18;100104.00;5043032;28;20255;-79
2022/02/07 05:25:08;;;;;;;9.63;2.27;;;;;;;2.96;88.51;100113.53;5041254;28;20731;-79
2022/02/07 05:27:34;;;;;;;5.97;1.73;;;;;;;3.03;88.23;100137.63;5041501;28;20197;-77
2022/02/07 05:30:03;;;;;;;8.73;1.33;;;;;;;3.02;87.55;100153.97;5042672;28;20852;-77
2022/02/07 05:32:30;;;;;;;8.40;1.87;;;;;;;2.99;87.90;100147.06;5041400;28;20602;-79
2022/02/07 05:34:56;;;;;;;6.03;1.90;;;;;;;2.89;88.88;100146.13;5072007;22;20229;-77
2022/02/07 05:37:23;;;;;;;8.27;1.70;;;;;;;2.83;89.23;100129.75;5041838;28;20225;-76
2022/02/07 05:39:56;;;;;;;5.53;1.27;;;;;;;2.85;88.61;100161.56;5041273;28;20210;-77
2022/02/07 05:42:23;;;;;;;7.47;1.63;;;;;;;2.87;88.61;100160.72;5041948;28;20216;-77
2022/02/07 05:44:49;;;;;;;5.07;0.90;;;;;;;2.84;88.88;100183.91;5040381;28;20631;-77
2022/02/07 05:47:16;;;;;;;6.37;2.23;;;;;;;2.76;88.70;100167.50;5038558;28;20201;-77
2022/02/07 05:49:42;;;;;;;7.10;1.27;;;;;;;2.69;89.66;100174.31;5038800;28;20198;-77
2022/02/07 05:52:09;;;;;;;5.03;1.23;;;;;;;2.65;90.21;100174.28;5041000;28;20197;-77
2022/02/07 05:54:35;;;;;;;9.80;1.60;;;;;;;2.66;90.84;100164.00;5033938;28;20713;-77
2022/02/07 05:57:03;;;;;;;6.87;1.33;;;;;;;2.66;91.16;100160.56;5031412;28;20230;-77
2022/02/07 05:59:30;;;;;;;8.07;1.77;;;;;;;2.56;90.84;100163.03;5030951;28;20209;-77
2022/02/07 06:01:56;;;;;;;6.13;1.60;;;;;;;2.66;91.17;100171.72;5031212;28;20202;-77
2022/02/07 06:04:22;;;;;;;6.60;1.93;;;;;;;2.60;90.81;100174.25;5031016;28;20649;-77
2022/02/07 06:06:49;;;;;;;7.10;1.13;;;;;;;2.54;91.52;100189.66;5031278;28;20202;-77
2022/02/07 06:09:15;;;;;;;8.53;1.70;;;;;;;2.54;91.44;100185.34;5031643;28;20233;-77
2022/02/07 06:11:42;;;;;;;6.00;1.20;;;;;;;2.55;91.89;100168.19;5030624;28;20676;-77
2022/02/07 06:14:09;;;;;;;6.20;1.60;;;;;;;2.52;92.00;100165.59;5031567;28;20226;-77
2022/02/07 06:16:36;;;;;;;6.17;1.53;;;;;;;2.53;92.33;100178.47;5031603;28;20260;-77
2022/02/07 06:19:02;;;;;;;6.13;1.33;;;;;;;2.48;91.85;100182.72;5034236;28;20198;-77
2022/02/07 06:21:32;;;;;;;5.90;1.30;;;;;;;2.50;91.92;100193.06;5034929;28;20210;-77
2022/02/07 06:23:58;;;;;;;6.33;1.30;;;;;;;2.48;92.29;100202.44;5034767;28;20647;-77
2022/02/07 06:26:24;;;;;;;9.40;2.00;;;;;;;2.52;91.55;100215.41;5035047;28;20206;-77
2022/02/07 06:28:51;;;;;;;4.87;1.63;;;;;;;2.54;91.49;100221.44;5035036;28;20678;-77
2022/02/07 06:31:18;;;;;;;8.23;2.07;;;;;;;2.62;91.04;100239.53;5034571;28;20803;-77
2022/02/07 06:33:45;;;;;;;7.50;1.27;;;;;;;2.58;91.02;100253.25;5034322;28;20238;-77
2022/02/07 06:36:11;;;;;;;6.17;1.40;;;;;;;2.65;91.00;100261.88;5035257;28;20646;-77
2022/02/07 06:38:37;;;;;;;3.77;1.47;;;;;;;2.71;91.02;100273.13;5034913;28;20782;-78
2022/02/07 06:41:04;;;;;;;4.67;1.73;;;;;;;2.77;90.66;100283.50;5034606;28;20213;-77
2022/02/07 06:43:30;;;;;;;9.17;1.87;;;;;;;2.81;90.96;100292.13;5034658;28;20304;-77
2022/02/07 06:45:58;;;;;;;11.10;2.03;;;;;;;2.82;90.77;100293.88;5034912;28;20245;-77
2022/02/07 06:48:26;;;;;;;9.80;2.03;;;;;;;2.89;90.64;100305.94;5034137;28;20679;-77
2022/02/07 06:50:52;;;;;;;9.40;2.13;;;;;;;2.94;90.67;100300.84;5034678;28;20214;-76
2022/02/07 06:53:19;;;;;;;5.27;1.43;;;;;;;2.88;91.72;100304.22;5034227;28;20283;-77
2022/02/07 06:55:46;;;;;;;9.20;1.70;;;;;;;2.91;91.82;100295.66;5034867;28;20206;-77
2022/02/07 06:58:12;;;;;;;10.97;1.50;;;;;;;2.96;91.79;100289.69;5034382;28;20636;-77
2022/02/07 07:00:38;;;;;;;7.97;1.63;;;;;;;2.99;91.94;100294.00;5034056;28;20202;-77
2022/02/07 07:03:05;;;;;;;8.27;1.60;;;;;;;3.04;91.71;100299.22;5034344;28;20711;-76
2022/02/07 07:05:33;;;;;;;10.33;2.33;;;;;;;3.04;91.93;100318.13;5034217;28;20206;-77
2022/02/07 07:08:00;;;;;;;8.80;1.60;;;;;;;3.04;92.43;100320.72;5035869;28;20206;-79
2022/02/07 07:10:26;;;;;;;4.63;1.73;;;;;;;3.12;91.28;100338.84;5034140;28;20214;-76
2022/02/07 07:13:01;;;;;;;8.73;2.03;;;;;;;3.08;90.82;100365.47;5034581;28;20202;-76
2022/02/07 07:15:38;;;;;;;6.83;1.70;;;;;;;3.12;90.67;100374.94;5033939;28;20213;-76
2022/02/07 07:18:04;;;;;;;7.17;2.10;;;;;;;3.13;90.60;100369.81;5034257;28;20210;-78
2022/02/07 07:20:34;;;;;;;14.30;2.53;;;;;;;3.16;90.74;100390.47;5035005;28;20209;-76
2022/02/07 07:23:01;;;;;;;6.70;2.10;;;;;;;3.25;90.26;100407.75;5034312;28;20202;-79
2022/02/07 07:25:29;;;;;;;8.40;1.23;;;;;;;3.28;89.43;100423.25;5035119;28;20209;-79
2022/02/07 07:28:00;;;;;;;6.70;2.13;;;;;;;3.28;89.76;100445.63;5034130;28;20242;-77
2022/02/07 07:30:29;;;;;;;5.80;1.40;;;;;;;3.25;90.01;100440.41;5034382;28;20218;-76
2022/02/07 07:33:01;;;;;;;7.60;1.57;;;;;;;3.24;90.48;100442.13;5033952;28;20210;-78
2022/02/07 07:35:27;;;;;;;8.53;2.00;;;;;;;3.13;92.08;100418.81;5034570;28;20214;-79
2022/02/07 07:37:55;;;;;;;6.53;1.73;;;;;;;3.11;93.50;100393.84;5043297;28;20634;-77
2022/02/07 07:40:22;;;;;;;8.40;2.13;;;;;;;3.09;94.77;100355.16;5042154;28;20205;-77
2022/02/07 07:42:52;;;;;;;6.33;1.80;;;;;;;3.07;95.86;100338.81;5048570;28;20235;-78
2022/02/07 07:45:21;;;;;;;9.50;2.07;;;;;;;3.09;95.99;100342.28;5053821;28;20193;-77
2022/02/07 07:47:50;;;;;;;7.40;2.13;;;;;;;2.98;97.15;100318.94;5053781;28;20751;-77
2022/02/07 07:50:21;;;;;;;5.10;1.50;;;;;;;2.99;97.60;100299.16;5052697;28;20688;-77
2022/02/07 07:53:04;;;;;;;8.80;2.00;;;;;;;2.99;97.97;100288.84;5053633;28;20190;-78
2022/02/07 08:03:44;;;;;;;10.67;3.10;;;;;;;3.08;96.47;100357.72;5050077;28;20233;-79
2022/02/07 08:06:14;;;;;;;11.83;2.77;;;;;;;3.08;95.98;100358.56;5033301;28;20205;-77
2022/02/07 08:08:48;;;;;;;8.33;2.27;;;;;;;3.07;95.91;100376.59;5033231;28;20229;-77
2022/02/07 08:11:16;;;;;;;7.40;2.13;;;;;;;3.02;95.45;100392.03;5040134;28;20208;-79
2022/02/07 08:13:45;;;;;;;13.43;2.13;;;;;;;3.04;96.07;100386.91;5041907;28;20677;-80
2022/02/07 08:16:12;;;;;;;6.97;1.87;;;;;;;3.02;95.79;100393.75;5037677;28;20207;-77
2022/02/07 08:18:38;;;;;;;8.67;2.23;;;;;;;3.06;95.53;100403.25;5033212;28;20226;-78
2022/02/07 08:21:05;;;;;;;10.20;2.23;;;;;;;3.05;95.14;100420.41;5032020;28;20743;-77
2022/02/07 08:23:33;;;;;;;10.93;2.43;;;;;;;3.08;94.68;100430.78;5033162;28;20226;-77
2022/02/07 08:26:02;;;;;;;9.73;2.10;;;;;;;3.09;95.00;100441.94;5032717;28;20228;-77
2022/02/07 08:28:29;;;;;;;9.10;1.50;;;;;;;3.13;94.42;100452.34;5032858;28;20210;-77
2022/02/07 08:30:56;;;;;;;5.57;1.60;;;;;;;3.17;94.14;100461.84;5032460;28;20252;-78
2022/02/07 08:33:22;;;;;;;10.87;2.13;;;;;;;3.22;94.35;100463.59;5033353;28;20272;-77
2022/02/07 08:35:49;;;;;;;14.83;2.07;;;;;;;3.28;93.15;100482.59;5034527;28;20244;-77
2022/02/07 08:38:15;;;;;;;13.77;3.20;;;;;;;3.42;91.84;100534.34;5034540;28;20225;-78
2022/02/07 08:40:42;;;;;;;8.77;2.53;;;;;;;3.53;91.15;100562.88;5033190;28;20210;-78
2022/02/07 08:43:08;;;;;;;6.80;2.07;;;;;;;3.57;90.97;100574.97;5036882;28;20202;-77
2022/02/07 08:45:36;;;;;;;11.70;3.03;;;;;;;3.62;90.03;100611.16;5043164;28;20198;-78
2022/02/07 08:48:02;;;;;;;12.53;2.60;;;;;;;3.60;89.96;100626.59;5045307;28;20193;-77
2022/02/07 08:50:29;;;;;;;12.93;2.87;;;;;;;3.74;89.21;100653.44;5054948;28;20209;-77
2022/02/07 08:52:57;;;;;;;6.70;1.93;;;;;;;3.88;89.22;100661.38;5048583;28;20212;-78
2022/02/07 08:55:28;;;;;;;7.27;2.83;;;;;;;3.95;88.48;100689.00;5043660;28;20196;-78
2022/02/07 08:57:59;;;;;;;12.63;2.07;;;;;;;3.95;87.15;100706.22;5044676;28;20248;-78
2022/02/07 09:00:37;;;;;;;15.27;2.30;;;;;;;3.94;86.86;100725.13;5043518;28;20202;-79
2022/02/07 09:03:21;;;;;;;9.83;2.50;;;;;;;3.93;86.96;100752.69;5035429;28;20752;-78
2022/02/07 09:05:54;;;;;;;12.43;3.13;;;;;;;3.98;85.37;100787.19;5028950;28;20202;-78
2022/02/07 09:08:49;;;;;;;13.93;2.77;;;;;;;4.03;85.13;100812.22;5033067;28;20202;-78
2022/02/07 09:11:17;;;;;;;18.53;3.00;;;;;;;4.08;84.83;100829.50;5035977;28;20217;-79
2022/02/07 09:13:45;;;;;;;16.23;2.63;;;;;;;4.06;84.88;100843.25;5037252;28;20226;-80
2022/02/07 09:16:23;;;;;;;13.13;2.83;;;;;;;3.98;86.63;100836.28;5035581;28;20198;-79
2022/02/07 09:18:51;;;;;;;11.63;2.53;;;;;;;3.77;89.31;100786.91;5035513;28;20727;-80
2022/02/07 09:21:17;;;;;;;16.67;2.43;;;;;;;3.62;91.21;100727.28;5035895;28;20279;-79
2022/02/07 09:23:45;;;;;;;11.67;3.33;;;;;;;3.60;92.29;100704.03;5036120;28;20230;-79
2022/02/07 09:26:13;;;;;;;7.87;2.00;;;;;;;3.44;93.08;100708.13;5035794;28;20202;-79
2022/02/07 09:28:41;;;;;;;9.27;2.20;;;;;;;3.18;95.05;100661.31;5035063;28;20676;-79
2022/02/07 09:31:08;;;;;;;9.85;2.78;;;;;;;2.93;95.44;100623.97;5033683;28;20464;-78
2022/02/07 09:33:34;;;;;;;9.17;3.23;;;;;;;2.67;94.86;100667.38;5037292;28;20256;-78
2022/02/07 09:36:03;;;;;;;14.03;3.07;;;;;;;2.44;96.02;100647.25;5040749;28;20199;-78
2022/02/07 09:38:32;;;;;;;11.83;2.23;;;;;;;2.34;95.31;100617.00;5045464;28;20279;-78
2022/02/07 09:40:59;;;;;;;7.53;1.60;;;;;;;2.45;93.97;100664.41;5055257;28;20264;-79
2022/02/07 09:43:31;;;;;;;10.50;2.53;;;;;;;2.15;94.87;100652.72;5055704;28;20321;-79
2022/02/07 09:46:05;;;;;;;7.57;2.03;;;;;;;2.07;96.17;100625.09;5056080;28;20205;-79
2022/02/07 09:48:33;;;;;;;10.73;1.57;;;;;;;2.00;97.04;100613.81;5053528;28;20289;-79
2022/02/07 09:51:00;;;;;;;6.37;1.50;;;;;;;2.04;97.81;100589.00;5054174;28;20209;-79
2022/02/07 09:53:28;;;;;;;10.03;1.63;;;;;;;2.15;97.69;100592.63;5058465;28;20630;-79
2022/02/07 09:55:54;;;;;;;13.10;3.10;;;;;;;2.32;98.78;100590.34;5059235;28;20208;-79
2022/02/07 09:58:21;;;;;;;14.97;2.20;;;;;;;2.55;98.12;100593.31;5059140;28;20256;-79
2022/02/07 10:00:48;;;;;;;12.87;3.00;;;;;;;2.85;97.74;100595.47;5059635;28;20213;-80
2022/02/07 10:03:18;;;;;;;18.53;3.00;;;;;;;3.09;97.74;100612.16;5058128;28;20347;-78
2022/02/07 10:05:50;;;;;;;11.80;2.70;;;;;;;3.33;96.27;100661.53;5032059;28;20204;-78
2022/02/07 10:08:32;;;;;;;10.27;2.30;;;;;;;3.56;94.54;100713.44;5043709;28;20586;-79
2022/02/07 10:11:17;;;;;;;13.77;2.77;;;;;;;3.73;93.00;100761.88;5046477;28;20197;-80
2022/02/07 10:13:52;;;;;;;16.10;3.70;;;;;;;3.90;91.13;100824.06;5045039;28;20304;-80
2022/02/07 10:16:36;;;;;;;13.93;3.20;;;;;;;3.98;89.58;100862.09;5043887;28;20210;-77
2022/02/07 10:19:16;;;;;;;11.47;2.87;;;;;;;4.08;89.76;100894.06;5041525;28;20259;-79
2022/02/07 10:36:12;;;;;;;11.70;3.30;;;;;;;4.55;84.83;101061.91;5030978;28;20217;-79
2022/02/07 10:38:51;;;;;;;10.40;2.80;;;;;;;4.63;82.80;101124.09;5026025;28;20259;-79
2022/02/07 10:41:53;;;;;;;13.40;2.77;;;;;;;4.81;83.74;101130.41;5029653;28;20233;-79
2022/02/07 10:44:37;;;;;;;14.10;2.63;;;;;;;4.86;82.35;101154.66;4333529;28;10000753;-80
2022/02/07 10:47:10;;;;;;;12.60;2.37;;;;;;;4.79;80.97;101195.03;5026702;28;20206;-80
2022/02/07 10:49:36;;;;;;;13.97;2.93;;;;;;;4.82;80.88;101220.13;5024658;28;20555;-78
2022/02/07 10:52:05;;;;;;;16.40;2.73;;;;;;;4.83;81.47;101237.34;5022270;28;20266;-79
2022/02/07 10:54:31;;;;;;;15.90;3.27;;;;;;;4.81;81.92;101210.59;5024176;28;20222;-79
2022/02/07 10:56:57;;;;;;;17.47;3.43;;;;;;;4.75;80.38;101212.22;5033772;28;20206;-78
2022/02/07 10:59:24;;;;;;;11.70;2.50;;;;;;;4.77;79.85;101257.09;5031981;28;20228;-78
2022/02/07 11:04:41;;;;;;;8.23;1.97;;;;;;;4.61;80.71;101268.00;5031604;28;20274;-78
2022/02/07 11:07:10;;;;;;;5.57;1.85;;;;;;;4.56;81.21;101270.50;5031173;28;20440;-79
2022/02/07 11:09:41;;;;;;;6.67;1.73;;;;;;;4.52;82.17;101240.28;5032025;28;20202;-78
2022/02/07 11:12:25;;;;;;;4.20;1.80;;;;;;;4.57;82.58;101225.69;5030551;28;20224;-76
2022/02/07 11:15:01;;;;;;;9.97;1.90;;;;;;;4.52;82.40;101203.19;5031393;28;20222;-77
2022/02/07 11:20:32;;;;;;;7.47;2.00;;;;;;;4.71;81.50;101232.84;5019749;28;20783;-77
2022/02/07 11:23:12;;;;;;;7.80;2.37;;;;;;;4.80;78.21;101309.72;5033075;28;20217;-79
2022/02/07 11:25:45;;;;;;;13.23;3.40;;;;;;;4.93;77.02;101353.09;5032278;28;20210;-79
2022/02/07 11:28:17;;;;;;;7.87;2.37;;;;;;;4.96;74.35;101439.41;5033469;28;20226;-78
2022/02/07 11:30:48;;;;;;;8.13;2.20;;;;;;;5.06;75.24;101457.69;5032145;28;20218;-79
2022/02/07 11:33:51;;;;;;;8.40;2.53;;;;;;;5.10;75.29;101462.09;5031373;28;20234;-76
2022/02/07 11:36:24;;;;;;;9.10;2.10;;;;;;;5.20;74.96;101455.38;4988893;28;20290;-79
2022/02/07 11:38:59;;;;;;;12.13;3.30;;;;;;;5.22;73.12;101483.03;5024784;28;20233;-79
2022/02/07 11:41:25;;;;;;;13.17;2.70;;;;;;;5.34;74.07;101495.34;5032477;28;20818;-80
2022/02/07 11:43:52;;;;;;;11.17;2.73;;;;;;;5.40;73.96;101490.28;5033061;28;20280;-78
2022/02/07 11:46:18;;;;;;;12.00;2.77;;;;;;;5.49;73.29;101515.47;5032437;28;20199;-79
2022/02/07 11:48:48;;;;;;;11.03;2.97;;;;;;;5.49;71.69;101541.38;5032853;28;20260;-80
2022/02/07 11:51:17;;;;;;;8.00;2.30;;;;;;;5.50;70.69;101592.34;5032825;28;20267;-78
2022/02/07 11:53:46;;;;;;;8.70;3.53;;;;;;;5.63;71.38;101606.38;5031307;28;20238;-79
2022/02/07 11:56:20;;;;;;;14.27;2.93;;;;;;;5.68;71.54;101605.66;5031324;28;20233;-78
2022/02/07 11:59:11;;;;;;;10.73;2.30;;;;;;;5.80;70.26;101611.91;5032653;28;20269;-79
2022/02/07 12:01:59;;;;;;;8.20;2.03;;;;;;;5.85;69.42;101633.63;5032711;28;20304;-79
2022/02/07 12:04:31;;;;;;;5.87;2.13;;;;;;;6.01;69.07;101652.97;5032640;28;20240;-79
2022/02/07 12:07:21;;;;;;;12.93;2.87;;;;;;;5.94;69.21;101678.72;5033794;28;20210;-79
2022/02/07 12:10:26;;;;;;;7.27;2.23;;;;;;;5.76;69.68;101667.97;5030913;28;20201;-79
2022/02/07 12:12:56;;;;;;;7.87;2.47;;;;;;;5.67;69.71;101670.38;5030790;28;20203;-77
2022/02/07 12:15:32;;;;;;;15.07;2.97;;;;;;;5.62;68.75;101685.81;5029252;28;20234;-79
2022/02/07 12:18:00;;;;;;;9.87;2.80;;;;;;;5.56;68.29;101693.47;5032586;28;20534;-79
2022/02/07 12:20:33;;;;;;;6.17;3.57;;;;;;;5.47;69.64;101672.53;5031617;28;20231;-78
2022/02/07 12:23:06;;;;;;;21.03;3.87;;;;;;;5.35;70.25;101660.19;5033326;28;20267;-78
2022/02/07 12:25:45;;;;;;;9.47;2.73;;;;;;;5.07;71.97;101645.75;5033877;28;20214;-78
2022/02/07 12:28:16;;;;;;;7.87;2.07;;;;;;;4.84;75.34;101588.31;5031148;28;20249;-79
2022/02/07 12:30:58;;;;;;;17.93;2.63;;;;;;;4.57;79.04;101471.31;5030165;28;20209;-76
2022/02/07 12:33:25;;;;;;;6.13;2.67;;;;;;;4.25;83.57;101358.59;5029990;28;20240;-77
2022/02/07 12:35:54;;;;;;;10.23;2.80;;;;;;;4.24;84.97;101281.91;5030789;28;20207;-77
2022/02/07 12:38:21;;;;;;;15.13;2.90;;;;;;;4.26;85.30;101280.22;5030019;28;20206;-77
2022/02/07 12:40:47;;;;;;;13.67;2.97;;;;;;;4.20;85.98;101331.78;5029846;28;20778;-77
2022/02/07 12:43:13;;;;;;;7.70;2.70;;;;;;;3.93;86.20;101299.34;5031084;28;20217;-79
2022/02/07 12:45:42;;;;;;;4.47;1.50;;;;;;;3.53;84.38;101345.78;5030587;28;20221;-77
2022/02/07 12:48:13;;;;;;;5.13;1.60;;;;;;;2.82;87.52;101285.50;5030420;28;20213;-77
2022/02/07 12:50:40;;;;;;;4.37;1.43;;;;;;;2.43;89.84;101225.19;5030228;28;20229;-77
2022/02/07 12:53:08;;;;;;;7.57;1.47;;;;;;;2.26;91.47;101139.72;5030841;28;20206;-78
2022/02/07 12:55:35;;;;;;;3.83;2.17;;;;;;;2.17;92.65;101091.41;5031056;28;20210;-78
2022/02/07 12:58:04;;;;;;;5.83;1.47;;;;;;;2.30;93.13;101063.38;5031997;28;20209;-78
2022/02/07 13:00:30;;;;;;;15.43;2.03;;;;;;;2.30;93.62;101035.94;5031140;28;20230;-78
2022/02/07 13:02:58;;;;;;;6.17;1.50;;;;;;;2.33;94.70;101020.53;5031128;28;20248;-77
2022/02/07 13:05:24;;;;;;;5.17;1.60;;;;;;;2.37;94.64;100990.56;5031039;28;20210;-78
2022/02/07 13:07:53;;;;;;;12.33;2.60;;;;;;;2.17;96.66;100964.34;5031062;28;20214;-79
2022/02/07 13:10:23;;;;;;;7.53;1.37;;;;;;;2.12;96.92;100932.47;5030917;28;20202;-78
2022/02/07 13:13:07;;;;;;;8.63;1.90;;;;;;;2.06;98.28;100910.03;5031315;28;20218;-78
2022/02/07 13:15:35;;;;;;;17.70;9.33;;;;;;;2.15;97.82;100893.91;5011267;28;20748;-78
2022/02/07 13:18:07;;;;;;;16.73;4.37;;;;;;;2.12;98.73;100884.44;5010140;28;20214;-78
2022/02/07 13:20:36;;;;;;;5.67;1.80;;;;;;;2.11;99.66;100867.22;5008932;28;20226;-78
2022/02/07 13:23:04;;;;;;;6.63;2.10;;;;;;;2.17;100.00;100851.91;5009712;28;20283;-78
2022/02/07 13:25:48;;;;;;;11.83;3.20;;;;;;;2.62;99.38;100865.72;5011149;28;20211;-79
2022/02/07 13:28:16;;;;;;;16.13;2.73;;;;;;;2.82;97.90;100899.63;5010084;28;20788;-78